• Join FlightAware (Why Join?)
  • Login
  • US Flag GB Flag 
07:55 EDT


 

Airport Tracker/Info


-or-


 

Live Flight TrackerFlight Track Log ✈ AAL1624 ✈ 21-Apr-2013 ✈ KLAX - KORD

Flight Track Log - Related Links

Times and Time Zones

All times are in EDT time to prevent confusion due to time zone crossing. See the AAL1624 flight status page for this flight to view local times or setup timezone preferences in your user account.

Time Position Orientation Groundspeed Altitude Reporting Facility
EDT Latitude Longitude Course Direction KTS MPH feet Rate Location/Type
18:21 33.9330 -118.4520 262° West 185 213 1,700  Level FlightAware
18:21 33.9280 -118.4760 256° West 210 242 2,000 720 Climbing FlightAware
18:22 33.9190 -118.5030 248° West 238 274 2,400 1,080 Climbing FlightAware
18:22 33.9080 -118.5360 248° West 259 298 3,100 1,860 Climbing FlightAware
18:22 33.9000 -118.5610 249° West 263 303 3,800 2,760 Climbing FlightAware
18:23 33.8610 -118.6010 220° Southwest 265 305 5,400 2,580 Climbing FlightAware
18:23 33.8360 -118.5890 158° South 269 310 6,200 2,220 Climbing FlightAware
18:24 33.8240 -118.5690 126° Southeast 276 318 6,700 1,920 Climbing FlightAware
18:24 33.8220 -118.5550 100° East 280 322 7,000 1,620 Climbing FlightAware
18:24 33.8300 -118.5240 73° East 285 328 7,800 1,860 Climbing FlightAware
18:24 33.8440 -118.5060 47° Northeast 287 330 8,400 2,520 Climbing FlightAware
18:25 33.8770 -118.4760 37° Northeast 289 333 9,700 1,920 Climbing FlightAware
18:26 33.9210 -118.4410 33° Northeast 319 367 10,700 1,320 Climbing FlightAware
18:26 33.9650 -118.3770 50° Northeast 363 418 11,500 1,800 Climbing FlightAware
18:27 34.0080 -118.3010 56° Northeast 377 434 13,300 2,460 Climbing FlightAware
18:28 34.0460 -118.2340 56° Northeast 383 441 15,000 2,580 Climbing FlightAware
18:28 34.1000 -118.1380 56° Northeast 399 459 17,000 2,580 Climbing FlightAware
18:29 34.1430 -118.0620 56° Northeast 408 470 18,700 2,400 Climbing FlightAware
18:30 34.1850 -117.9870 56° Northeast 414 476 20,200 2,160 Climbing FlightAware
18:31 34.2340 -117.9000 56° Northeast 423 487 21,800 2,040 Climbing FlightAware
18:31 34.2800 -117.8180 56° Northeast 432 497 23,100 1,860 Climbing FlightAware
18:32 34.3240 -117.7400 56° Northeast 440 506 24,300 1,680 Climbing FlightAware
18:33 34.3750 -117.6490 56° Northeast 448 516 25,500 1,500 Climbing FlightAware
18:33 34.4230 -117.5620 56° Northeast 457 526 26,500 1,440 Climbing FlightAware
18:34 34.4770 -117.4650 56° Northeast 464 534 27,600 1,440 Climbing FlightAware
18:35 34.5260 -117.3770 56° Northeast 468 539 28,600 1,320 Climbing FlightAware
18:35 34.5740 -117.2900 56° Northeast 474 545 29,400 1,260 Climbing FlightAware
18:36 34.6260 -117.1990 55° Northeast 469 540 30,400 1,440 Climbing FlightAware
18:37 34.6830 -117.1210 48° Northeast 464 534 31,500 1,380 Climbing FlightAware
18:38 34.7510 -117.0280 48° Northeast 467 537 32,400 1,080 Climbing FlightAware
18:38 34.8040 -116.9550 49° Northeast 469 540 33,100 1,320 Climbing FlightAware
18:39 34.8670 -116.8690 48° Northeast 465 535 34,200 1,620 Climbing FlightAware
18:40 34.9290 -116.7840 48° Northeast 456 525 35,400 1,200 Climbing FlightAware
18:40 34.9850 -116.7060 49° Northeast 458 527 35,900 720 Climbing FlightAware
18:41 35.0380 -116.6330 48° Northeast 462 532 36,400 720 Climbing FlightAware
18:42 35.1060 -116.5380 49° Northeast 464 534 37,000 420 Climbing FlightAware
18:42 35.1570 -116.4690 48° Northeast 464 534 37,000  Level FlightAware
18:43 35.2060 -116.4020 48° Northeast 464 534 37,000  Level FlightAware
18:44 35.2740 -116.3060 49° Northeast 456 525 37,000  Level FlightAware
18:44 35.3220 -116.2410 48° Northeast 456 525 37,000  Level FlightAware
18:45 35.3980 -116.1300 50° Northeast 455 524 37,000  Level FlightAware
18:46 35.4530 -116.0530 49° Northeast 454 522 37,000  Level FlightAware
18:47 35.5150 -115.9660 49° Northeast 453 521 37,000  Level FlightAware
18:47 35.5600 -115.8780 58° Northeast 462 532 37,000  Level FlightAware
18:48 35.5830 -115.7660 76° East 466 536 37,000  Level FlightAware
18:49 35.6020 -115.6620 77° East 465 535 37,000  Level FlightAware
18:50 35.6280 -115.5180 77° East 466 536 37,000  Level FlightAware
18:50 35.6470 -115.4140 77° East 468 539 37,000  Level FlightAware
18:51 35.6670 -115.2990 78° East 468 539 37,000  Level FlightAware
18:52 35.6860 -115.1960 77° East 470 541 37,000  Level FlightAware
18:52 35.7070 -115.0750 78° East 470 541 37,000  Level FlightAware
18:53 35.7260 -114.9700 77° East 472 543 37,000  Level FlightAware
18:54 35.7460 -114.8550 78° East 472 543 37,000  Level FlightAware
18:55 35.7650 -114.7490 78° East 473 544 37,000  Level FlightAware
18:55 35.7860 -114.6310 78° East 473 544 37,000  Level FlightAware
18:56 35.8040 -114.5240 78° East 474 545 37,000  Level FlightAware
18:57 35.8230 -114.4180 78° East 476 548 37,000  Level FlightAware
18:57 35.8430 -114.3030 78° East 476 548 37,000  Level FlightAware
18:58 35.8610 -114.1970 78° East 477 549 37,000  Level FlightAware
18:59 35.8820 -114.0720 78° East 477 549 37,000  Level FlightAware
18:59 35.8990 -113.9690 78° East 475 547 37,000  Level FlightAware
19:00 35.9180 -113.8610 78° East 475 547 37,000  Level FlightAware
19:01 35.9370 -113.7440 79° East 474 545 37,000  Level FlightAware
19:02 35.9550 -113.6390 78° East 474 545 37,000  Level FlightAware
19:02 35.9750 -113.5160 79° East 476 548 37,000  Level FlightAware
19:03 35.9920 -113.4150 78° East 477 549 37,000  Level FlightAware
19:04 36.0120 -113.2940 78° East 478 550 37,000  Level FlightAware
19:04 36.0290 -113.1870 79° East 481 554 37,000  Level FlightAware
19:05 36.0470 -113.0760 79° East 483 556 37,000  Level FlightAware
19:06 36.0640 -112.9680 79° East 483 556 37,000  Level FlightAware
19:06 36.0830 -112.8490 79° East 483 556 37,000  Level FlightAware
19:07 36.1000 -112.7420 79° East 484 557 37,000  Level FlightAware
19:08 36.1160 -112.6430 79° East 484 557 37,000  Level FlightAware
19:09 36.1320 -112.5390 79° East 483 556 37,000  Level FlightAware
19:09 36.1520 -112.4140 79° East 484 557 37,000  Level FlightAware
19:10 36.1640 -112.3350 79° East 484 557 37,000  Level FlightAware
19:11 36.1780 -112.2430 79° East 484 557 37,000  Level FlightAware
19:11 36.1970 -112.1270 78° East 484 557 37,000  Level FlightAware
19:12 36.2110 -112.0340 79° East 484 557 37,000  Level FlightAware
19:13 36.2390 -111.8380 80° East 484 557 37,000  Level FlightAware
19:13 36.2570 -111.7260 79° East 484 557 37,000  Level FlightAware
19:14 36.2710 -111.6340 79° East 484 557 37,000  Level FlightAware
19:15 36.2860 -111.5410 79° East 484 557 37,000  Level FlightAware
19:15 36.3000 -111.4480 79° East 484 557 37,000  Level FlightAware
19:16 36.3180 -111.3320 79° East 484 557 37,000  Level FlightAware
19:17 36.3330 -111.2400 79° East 484 557 37,000  Level FlightAware
19:18 36.3480 -111.1470 79° East 484 557 37,000  Level FlightAware
19:18 36.3620 -111.0540 79° East 484 557 37,000  Level FlightAware
19:19 36.3770 -110.9610 79° East 484 557 37,000  Level FlightAware
19:20 36.3950 -110.8450 79° East 484 557 37,000  Level FlightAware
19:20 36.4090 -110.7520 79° East 484 557 37,000  Level FlightAware
19:21 36.4240 -110.6590 79° East 484 557 37,000  Level FlightAware
19:22 36.4380 -110.5670 79° East 484 557 37,000  Level FlightAware
19:22 36.4530 -110.4740 79° East 484 557 37,000  Level FlightAware
19:23 36.4844 -110.1261 79° East 483 556 37,000  Level Denver Center
19:24 36.5003 -109.9961 81° East 479 551 37,000  Level Denver Center
19:25 36.5528 -109.7950 72° East 478 550 37,000  Level Denver Center
19:26 36.5983 -109.6181 72° East 479 551 37,000  Level Denver Center
19:27 36.6367 -109.4669 72° East 478 550 37,000  Level Denver Center
19:28 36.6761 -109.3133 72° East 483 556 37,000  Level Denver Center
19:29 36.7214 -109.1331 73° East 485 558 37,000 180 Level Denver Center
19:30 36.7608 -108.9769 72° East 490 564 37,400 420 Climbing Denver Center
19:31 36.8072 -108.7914 73° East 498 573 37,900 540 Climbing Denver Center
19:33 36.8461 -108.6297 73° East 505 581 38,600 480 Climbing Denver Center
19:34 36.8914 -108.4442 73° East 500 575 39,000 180 Climbing Denver Center
19:35 36.9303 -108.2850 73° East 499 574 39,000  Level Denver Center
19:36 36.9750 -108.1022 73° East 494 568 39,000  Level Denver Center
19:37 37.0139 -107.9450 73° East 493 567 39,000  Level Denver Center
19:38 37.0539 -107.7897 72° East 490 564 39,000  Level Denver Center
19:39 37.1017 -107.6056 72° East 498 573 39,000  Level Denver Center
19:40 37.1419 -107.4481 72° East 496 571 39,000  Level Denver Center
19:41 37.1894 -107.2617 72° East 502 578 39,000  Level Denver Center
19:42 37.2294 -107.1031 72° East 500 575 39,000  Level Denver Center
19:47 37.4709 -106.1200 72° East 510 587 39,000  Level FlightAware ADS-B
19:48 37.4919 -106.0330 73° East 510 587 39,000  Level FlightAware ADS-B
19:49 37.5130 -105.9470 73° East 509 586 39,000  Level FlightAware ADS-B
19:49 37.5354 -105.8620 72° East 510 587 39,000  Level FlightAware ADS-B
19:50 37.5585 -105.7740 72° East 510 587 39,000  Level FlightAware ADS-B
19:50 37.5807 -105.6890 72° East 511 588 39,000  Level FlightAware ADS-B
19:51 37.6027 -105.6030 72° East 510 587 39,000  Level FlightAware ADS-B
19:51 37.6262 -105.5110 72° East 513 590 39,000  Level FlightAware ADS-B
19:52 37.6487 -105.4230 72° East 518 596 39,000  Level FlightAware ADS-B
19:52 37.6707 -105.3360 72° East 518 596 39,000  Level FlightAware ADS-B
19:53 37.6932 -105.2470 72° East 521 600 39,000  Level FlightAware ADS-B
19:53 37.7154 -105.1580 72° East 519 597 39,000  Level FlightAware ADS-B
19:54 37.7376 -105.0690 72° East 520 598 39,000  Level FlightAware ADS-B
19:54 37.7618 -104.9730 72° East 521 600 39,000  Level FlightAware ADS-B
19:55 37.7834 -104.8860 73° East 520 598 39,000  Level FlightAware ADS-B
19:55 37.8052 -104.7990 72° East 522 601 39,000  Level FlightAware ADS-B
19:56 37.8272 -104.7110 72° East 525 604 39,000  Level FlightAware ADS-B
19:56 37.8532 -104.6040 73° East 524 603 39,000  Level FlightAware ADS-B
19:57 37.8774 -104.5050 73° East 523 602 39,000  Level FlightAware ADS-B
19:57 37.8970 -104.4240 73° East 524 603 39,000  Level FlightAware
19:58 37.9263 -104.3040 73° East 523 602 39,000  Level FlightAware ADS-B
19:59 37.9493 -104.2100 73° East 520 598 39,000  Level FlightAware ADS-B
19:59 37.9714 -104.1190 73° East 521 600 39,000  Level FlightAware ADS-B
20:00 37.9929 -104.0290 73° East 521 600 39,000  Level FlightAware ADS-B
20:00 38.0036 -103.9730 76° East 527 606 39,000  Level FlightAware ADS-B
20:00 38.0169 -103.8810 80° East 529 609 39,000  Level FlightAware ADS-B
20:01 38.0308 -103.7830 80° East 529 609 39,000  Level FlightAware ADS-B
20:01 38.0437 -103.6910 80° East 530 610 39,000  Level FlightAware ADS-B
20:02 38.0566 -103.5990 80° East 530 610 39,000  Level FlightAware ADS-B
20:02 38.0697 -103.5060 80° East 531 611 39,000  Level FlightAware ADS-B
20:03 38.0826 -103.4120 80° East 532 612 39,000  Level FlightAware ADS-B
20:03 38.0953 -103.3190 80° East 532 612 39,000  Level FlightAware ADS-B
20:04 38.1079 -103.2260 80° East 532 612 39,000  Level FlightAware ADS-B
20:05 38.1206 -103.1310 80° East 532 612 39,000  Level FlightAware ADS-B
20:05 38.1334 -103.0360 80° East 532 612 39,000  Level FlightAware ADS-B
20:06 38.1458 -102.9440 80° East 532 612 39,000  Level FlightAware ADS-B
20:06 38.1581 -102.8510 80° East 531 611 39,000  Level FlightAware ADS-B
20:07 38.1702 -102.7590 80° East 528 608 39,000  Level FlightAware ADS-B
20:07 38.1824 -102.6660 80° East 528 608 39,000  Level FlightAware ADS-B
20:08 38.1946 -102.5740 80° East 527 606 39,000  Level FlightAware ADS-B
20:08 38.2067 -102.4810 81° East 526 605 39,000  Level FlightAware ADS-B
20:09 38.2186 -102.3890 81° East 526 605 39,000  Level FlightAware ADS-B
20:09 38.2305 -102.2970 81° East 526 605 39,000  Level FlightAware ADS-B
20:10 38.2425 -102.2020 81° East 526 605 39,000  Level FlightAware ADS-B
20:10 38.2540 -102.1100 81° East 524 603 39,000  Level FlightAware ADS-B
20:11 38.2655 -102.0180 81° East 525 604 39,000  Level FlightAware ADS-B
20:11 38.2769 -101.9270 81° East 524 603 39,000  Level FlightAware ADS-B
20:12 38.2883 -101.8350 81° East 523 602 39,000  Level FlightAware ADS-B
20:12 38.2997 -101.7430 81° East 523 602 39,000  Level FlightAware ADS-B
20:13 38.3107 -101.6510 81° East 522 601 39,000  Level FlightAware ADS-B
20:13 38.3226 -101.5530 81° East 523 602 39,000  Level FlightAware ADS-B
20:14 38.3397 -101.4092 81° East 518 596 39,000  Level Denver Center
20:15 38.3600 -101.2319 82° East 526 605 39,000  Level Denver Center
20:16 38.3844 -101.0286 81° East 520 598 39,000  Level Denver Center
20:17 38.4039 -100.8556 82° East 516 594 39,000  Level Denver Center
20:18 38.4275 -100.6558 81° East 510 587 39,000  Level Denver Center
20:19 38.4467 -100.4842 82° East 510 587 39,000  Level Denver Center
20:20 38.4653 -100.3128 82° East 509 586 39,000  Level Denver Center
20:21 38.4908 -100.0850 82° East 508 585 39,000  Level Denver Center
20:22 38.5344 -99.8928 74° East 503 579 39,000  Level Denver Center
20:24 38.5853 -99.7383 67° East 496 571 39,000  Level Denver Center
20:25 38.6406 -99.5542 69° East 495 570 39,000  Level Kansas City Center
20:26 38.6806 -99.3914 72° East 499 574 39,000 240 Level Denver Center
20:27 38.7267 -99.2083 72° East 496 571 39,500  Climbing Kansas City Center
20:28 38.7728 -99.0372 71° East 505 581 39,000 -240 Descending Kansas City Center
20:29 38.8153 -98.8689 72° East 498 573 39,000  Level Kansas City Center
20:30 38.8581 -98.6986 72° East 500 575 39,000  Level Kansas City Center
20:31 38.9017 -98.5275 72° East 502 578 39,000  Level Kansas City Center
20:32 38.9442 -98.3567 72° East 502 578 39,000  Level Kansas City Center
20:33 38.9858 -98.1844 73° East 504 580 39,000  Level Kansas City Center
20:34 39.0281 -98.0125 72° East 504 580 39,000  Level Kansas City Center
20:35 39.0778 -97.8100 72° East 502 578 39,000  Level Kansas City Center
20:36 39.1181 -97.6461 72° East 501 577 39,000  Level Kansas City Center
20:37 39.1633 -97.4550 73° East 501 577 39,000  Level Kansas City Center
20:38 39.2025 -97.2908 73° East 500 575 39,000  Level Kansas City Center
20:39 39.2467 -97.1011 73° East 496 571 39,000  Level Kansas City Center
20:45 39.4580 -96.1870 73° East 501 577 39,000  Level FlightAware
20:46 39.4880 -96.0530 74° East 502 578 39,000  Level FlightAware
20:47 39.5230 -95.8890 74° East 504 580 39,000  Level FlightAware
20:47 39.5480 -95.7630 76° East 504 580 39,000  Level FlightAware
20:48 39.5830 -95.5820 76° East 502 578 39,000  Level FlightAware
20:50 39.6300 -95.3460 75° East 496 571 39,000  Level FlightAware
20:51 39.6530 -95.2310 75° East 494 568 39,000  Level FlightAware
20:51 39.6770 -95.1080 76° East 492 566 39,000  Level FlightAware
20:52 39.7010 -94.9820 76° East 491 565 39,000  Level FlightAware
20:53 39.7180 -94.8960 76° East 489 563 39,000  Level FlightAware
20:53 39.7300 -94.8300 77° East 488 562 39,000  Level FlightAware
20:54 39.7890 -94.5200 76° East 481 554 39,000  Level FlightAware
20:55 39.8100 -94.4090 76° East 478 550 39,000  Level FlightAware
20:55 39.8330 -94.2880 76° East 476 548 39,000  Level FlightAware
20:56 39.8540 -94.1760 76° East 478 550 39,000  Level FlightAware
20:57 39.8780 -94.0470 76° East 481 554 39,000  Level FlightAware
20:58 39.8980 -93.9330 77° East 479 551 39,000  Level FlightAware
20:58 39.9180 -93.8240 77° East 478 550 39,000  Level FlightAware
20:59 39.9410 -93.6980 77° East 476 548 39,000  Level FlightAware
21:00 39.9640 -93.5730 76° East 474 545 39,000  Level FlightAware
21:00 39.9830 -93.4650 77° East 477 549 39,000  Level FlightAware
21:01 40.0040 -93.3490 77° East 479 551 39,000  Level FlightAware
21:02 40.0260 -93.2230 77° East 483 556 39,000  Level FlightAware
21:02 40.0460 -93.1110 77° East 482 555 39,000  Level FlightAware
21:03 40.0650 -92.9960 78° East 482 555 39,000  Level FlightAware
21:04 40.0880 -92.8670 77° East 482 555 39,000  Level FlightAware
21:05 40.1070 -92.7530 78° East 481 554 39,000  Level FlightAware
21:05 40.1290 -92.6300 77° East 482 555 39,000  Level FlightAware
21:06 40.1580 -92.5280 70° East 476 548 39,000  Level FlightAware
21:07 40.1960 -92.4230 65° Northeast 475 547 39,000  Level FlightAware
21:07 40.2290 -92.3310 65° Northeast 475 547 39,000  Level FlightAware
21:08 40.2740 -92.2050 65° Northeast 474 545 39,000  Level FlightAware
21:09 40.3200 -92.0790 64° Northeast 473 544 39,000  Level FlightAware
21:09 40.3420 -92.0170 65° Northeast 473 544 39,000  Level FlightAware
21:10 40.3870 -91.8910 65° Northeast 474 545 39,000 -480 Level FlightAware
21:11 40.4250 -91.7830 65° Northeast 476 548 38,300 -1,080 Descending FlightAware
21:11 40.4670 -91.6610 66° East 474 545 37,500 -1,800 Descending FlightAware
21:12 40.5020 -91.5550 66° East 472 543 35,800 -2,700 Descending FlightAware
21:13 40.5370 -91.4510 66° East 473 544 33,900 -1,980 Descending FlightAware
21:14 40.5760 -91.3370 66° East 466 536 33,000 -660 Descending FlightAware
21:14 40.6120 -91.2340 65° Northeast 466 536 33,000  Level FlightAware
21:15 40.6510 -91.1190 66° East 466 536 33,000 -240 Level FlightAware
21:16 40.6880 -91.0110 66° East 467 537 32,700 -720 Descending FlightAware
21:16 40.7270 -90.8960 66° East 465 535 32,000 -960 Descending FlightAware
21:17 40.7590 -90.8020 66° East 468 539 31,400 -1,020 Descending FlightAware
21:18 40.7960 -90.6890 67° East 471 542 30,700 -1,140 Descending FlightAware
21:18 40.8370 -90.5690 66° East 465 535 29,800 -1,200 Descending FlightAware
21:19 40.8720 -90.4640 66° East 467 537 29,000 -1,140 Descending FlightAware
21:20 40.9080 -90.3550 66° East 469 540 28,200 -1,140 Descending FlightAware
21:21 40.9450 -90.2450 66° East 463 533 27,400 -1,140 Descending FlightAware
21:21 40.9780 -90.1440 67° East 458 527 26,700 -1,080 Descending FlightAware
21:22 41.0160 -90.0290 66° East 453 521 25,900 -1,080 Descending FlightAware
21:23 41.0740 -89.8520 66° East 440 506 24,700 -1,020 Descending FlightAware
21:24 41.1000 -89.7700 67° East 439 505 24,200 -540 Descending FlightAware
21:25 41.1400 -89.6490 66° East 436 502 24,000 -960 Descending FlightAware
21:25 41.1760 -89.5480 65° Northeast 432 497 22,800 -2,100 Descending FlightAware
21:26 41.2130 -89.4560 62° Northeast 422 486 21,200 -2,160 Descending FlightAware
21:27 41.2530 -89.3560 62° Northeast 413 475 19,800 -1,860 Descending FlightAware
21:27 41.2910 -89.2640 61° Northeast 408 470 18,600 -1,740 Descending FlightAware
21:28 41.3240 -89.1810 62° Northeast 396 456 17,500 -1,860 Descending FlightAware
21:29 41.3640 -89.0810 62° Northeast 396 456 16,000 -1,920 Descending FlightAware
21:29 41.3980 -88.9950 62° Northeast 390 449 14,800 -1,860 Descending FlightAware
21:30 41.4360 -88.9000 62° Northeast 382 440 13,400 -1,860 Descending FlightAware
21:31 41.4690 -88.8170 62° Northeast 375 432 12,200 -1,740 Descending FlightAware
21:32 41.5050 -88.7270 62° Northeast 365 420 11,000 -1,140 Descending FlightAware
21:32 41.5340 -88.6540 62° Northeast 336 387 10,600 -300 Descending FlightAware
21:33 41.5620 -88.5810 63° Northeast 307 353 10,600  Level FlightAware
21:34 41.5920 -88.5080 61° Northeast 302 348 10,600  Level FlightAware
21:34 41.6200 -88.4480 58° Northeast 300 345 10,600 -300 Level FlightAware
21:35 41.6590 -88.3810 52° Northeast 301 346 10,200 -780 Descending FlightAware
21:35 41.6810 -88.3430 52° Northeast 298 343 9,700 -1,140 Descending FlightAware
21:36 41.7130 -88.3090 38° Northeast 297 342 9,200 -960 Descending FlightAware
21:36 41.7300 -88.3060 North 294 338 9,000 -1,200 Descending FlightAware
21:37 41.7680 -88.3070 359° North 293 337 8,400 -1,380 Descending FlightAware
21:37 41.7860 -88.3070 360° North 292 336 8,100 -1,200 Descending FlightAware
21:37 41.8270 -88.3080 359° North 290 334 7,500 -1,200 Descending FlightAware
21:38 41.8610 -88.3080 360° North 289 333 7,000 -1,380 Descending FlightAware
21:38 41.8830 -88.3080 360° North 286 329 6,600 -1,380 Descending FlightAware
21:39 41.9220 -88.3090 359° North 282 325 6,000 -1,200 Descending FlightAware
21:39 41.9500 -88.3010 12° North 280 322 5,500 -1,380 Descending FlightAware
21:39 41.9640 -88.2810 47° Northeast 272 313 5,100 -1,440 Descending FlightAware
21:39 41.9690 -88.2580 74° East 269 310 4,800 -1,380 Descending FlightAware
21:40 41.9680 -88.2150 92° East 263 303 4,200 -1,200 Descending FlightAware
21:40 41.9680 -88.1860 90° East 249 287 3,900 -720 Descending FlightAware
21:41 41.9690 -88.1460 88° East 222 255 3,700 -1,020 Descending FlightAware
21:41 41.9690 -88.1070 90° East 211 243 2,900 -1,380 Descending FlightAware
21:42 41.9690 -88.0600 90° East 175 201 2,100 -1,140 Descending FlightAware
21:42 41.9690 -88.0380 90° East 155 178 1,800 -660 Descending FlightAware
21:43 41.9690 -88.0090 90° East 141 162 1,500 -720 Descending FlightAware
21:43 41.9690 -87.9940 90° East 140 161 1,200 -780 Descending FlightAware
21:44 41.9690 -87.9480 90° East 142 163 600 -780 Descending FlightAware
21:44 41.9690 -87.9300 90° East 144 166 300 -900 Descending FlightAware